Byers, Texas
Current Conditions -  °F | °C
As of 11:28 PM on Wednesday 17 Dec 2014 (Local Time) from KSPS Reporting Station
Overcast Overcast  
Wind Chill: 35°   Ceiling: 400
Heat Index: 40°   Visibility: 7mi
Dew Point: 39°   Wind: 7mph
Humidity: 97%   Direction: 150°SSE
Pressure: 30.13"   Gusts: NA
Location:  34.07°N, 98.19°W
Report Text: KSPS 180528Z AUTO 15006KT 7SM OVC004 04/04 A3013 RMK AO2 T00440039 TSNO
Loading
Personal Weather Stations






























Interactive Weather Map New forecast layout! Learn more

10-Day Weather Forecast

Advertisements
Track Severe Weather on mobile